createdAt,value
2017-08-21T00:01:20.979Z,50.70
2017-08-21T00:03:48.427Z,50.20
2017-08-21T00:06:15.890Z,50.20
2017-08-21T00:08:43.346Z,50.20
2017-08-21T00:11:10.814Z,50.20
2017-08-21T00:13:38.270Z,50.20
2017-08-21T00:16:05.730Z,50.20
2017-08-21T00:18:33.185Z,50.20
2017-08-21T00:21:00.660Z,50.20
2017-08-21T00:23:28.101Z,50.20
2017-08-21T00:25:55.563Z,50.20
2017-08-21T00:28:23.009Z,50.20
2017-08-21T00:30:50.457Z,50.20
2017-08-21T00:33:17.914Z,50.20
2017-08-21T00:35:45.369Z,50.20
2017-08-21T00:38:12.826Z,50.20
2017-08-21T00:40:40.297Z,50.20
2017-08-21T00:43:07.741Z,50.20
2017-08-21T00:45:35.196Z,50.30
2017-08-21T00:48:02.662Z,50.30
2017-08-21T00:50:30.157Z,50.20
2017-08-21T00:52:57.609Z,50.30
2017-08-21T00:55:25.062Z,50.30
2017-08-21T00:57:52.518Z,50.40
2017-08-21T01:00:20.001Z,50.30
2017-08-21T01:02:47.466Z,50.30
2017-08-21T01:05:14.910Z,50.30
2017-08-21T01:07:42.377Z,50.30
2017-08-21T01:10:09.847Z,50.30
2017-08-21T01:12:37.297Z,50.30
2017-08-21T01:15:04.768Z,50.30
2017-08-21T01:17:32.210Z,50.30
2017-08-21T01:19:59.666Z,50.30
2017-08-21T01:22:27.126Z,50.40
2017-08-21T01:24:54.574Z,50.40
2017-08-21T01:27:22.049Z,50.30
2017-08-21T01:30:24.034Z,50.30
2017-08-21T01:32:51.478Z,50.40
2017-08-21T01:35:18.933Z,50.40
2017-08-21T01:37:46.378Z,50.40
2017-08-21T01:40:13.838Z,50.30
2017-08-21T01:42:41.290Z,50.30
2017-08-21T01:45:08.737Z,50.40
2017-08-21T01:47:36.218Z,50.40
2017-08-21T01:50:03.673Z,50.40
2017-08-21T01:52:31.140Z,50.40
2017-08-21T01:54:58.578Z,50.40
2017-08-21T01:57:26.047Z,50.40
2017-08-21T01:59:53.494Z,50.40
2017-08-21T02:02:20.951Z,50.50
2017-08-21T02:04:48.402Z,50.50
2017-08-21T02:07:15.869Z,50.50
2017-08-21T02:09:43.344Z,50.50
2017-08-21T02:12:10.788Z,50.50
2017-08-21T02:14:38.239Z,50.50
2017-08-21T02:17:05.698Z,50.60
2017-08-21T02:19:33.146Z,50.50
2017-08-21T02:22:00.610Z,51.20
2017-08-21T02:24:28.065Z,50.60
2017-08-21T02:26:55.510Z,50.50
2017-08-21T02:29:22.980Z,50.60
2017-08-21T02:31:50.432Z,50.60
2017-08-21T02:36:37.568Z,50.10
2017-08-21T02:39:05.026Z,50.50
2017-08-21T02:41:32.489Z,50.60
2017-08-21T02:43:59.978Z,50.70
2017-08-21T02:46:27.465Z,50.60
2017-08-21T02:48:54.901Z,50.70
2017-08-21T02:51:22.374Z,50.60
2017-08-21T02:53:49.850Z,50.60
2017-08-21T02:56:17.310Z,50.70
2017-08-21T02:58:44.793Z,50.70
2017-08-21T03:01:12.254Z,50.80
2017-08-21T03:03:39.710Z,50.70
2017-08-21T03:06:07.170Z,50.60
2017-08-21T03:08:34.621Z,50.70
2017-08-21T03:11:02.127Z,50.60
2017-08-21T03:13:29.575Z,50.70
2017-08-21T03:15:57.043Z,50.80
2017-08-21T03:18:24.503Z,50.80
2017-08-21T03:20:51.966Z,50.80
2017-08-21T03:23:19.421Z,50.90
2017-08-21T03:25:46.882Z,50.90
2017-08-21T03:28:14.342Z,50.80
2017-08-21T03:30:41.794Z,50.90
2017-08-21T03:33:09.258Z,50.90
2017-08-21T03:35:36.722Z,50.90
2017-08-21T03:38:04.227Z,50.90
2017-08-21T03:40:31.667Z,51.00
2017-08-21T03:42:59.120Z,50.90
2017-08-21T03:45:26.570Z,50.90
2017-08-21T03:47:54.022Z,50.90
2017-08-21T03:50:21.497Z,50.90
2017-08-21T03:52:48.969Z,50.90
2017-08-21T03:55:16.442Z,50.90
2017-08-21T03:57:43.885Z,51.00
2017-08-21T04:00:11.344Z,51.00
2017-08-21T04:02:38.797Z,51.00
2017-08-21T04:05:06.242Z,50.90
2017-08-21T04:07:33.686Z,51.00
2017-08-21T04:10:01.160Z,50.90
2017-08-21T04:12:28.626Z,51.00
2017-08-21T04:14:56.073Z,51.00
2017-08-21T04:17:23.524Z,51.00
2017-08-21T04:19:51.014Z,51.00
2017-08-21T04:22:18.470Z,51.00
2017-08-21T04:24:45.943Z,51.10
2017-08-21T04:27:13.398Z,51.00
2017-08-21T04:29:40.865Z,51.00
2017-08-21T04:32:08.354Z,51.00
2017-08-21T04:34:35.801Z,51.00
2017-08-21T04:37:03.278Z,50.90
2017-08-21T04:39:30.722Z,51.00
2017-08-21T04:41:58.179Z,51.00
2017-08-21T04:44:25.657Z,51.00
2017-08-21T04:46:53.158Z,51.00
2017-08-21T04:49:20.640Z,50.90
2017-08-21T04:51:48.117Z,51.00
2017-08-21T04:54:15.578Z,51.00
2017-08-21T04:56:43.069Z,51.00
2017-08-21T04:59:10.522Z,51.00
2017-08-21T05:01:38.007Z,50.90
2017-08-21T05:04:05.442Z,51.00
2017-08-21T05:06:32.926Z,51.00
2017-08-21T05:09:00.394Z,51.00
2017-08-21T05:11:27.880Z,51.00
2017-08-21T05:13:55.355Z,50.90
2017-08-21T05:16:22.798Z,50.90
2017-08-21T05:18:50.277Z,50.90
2017-08-21T05:21:17.737Z,50.90
2017-08-21T05:23:45.216Z,50.80
2017-08-21T05:26:12.666Z,50.80
2017-08-21T05:28:40.147Z,50.80
2017-08-21T05:31:07.618Z,50.80
2017-08-21T05:33:35.118Z,50.80
2017-08-21T05:36:02.577Z,50.80
2017-08-21T05:38:30.055Z,50.70
2017-08-21T05:40:57.502Z,50.80
2017-08-21T05:43:24.958Z,50.80
2017-08-21T05:45:52.431Z,50.70
2017-08-21T05:48:19.910Z,50.80
2017-08-21T05:50:47.362Z,50.70
2017-08-21T05:53:14.822Z,50.70
2017-08-21T05:55:42.290Z,50.70
2017-08-21T05:58:09.733Z,50.60
2017-08-21T06:00:37.206Z,50.70
2017-08-21T06:03:04.730Z,50.70
2017-08-21T06:05:32.174Z,50.80
2017-08-21T06:07:59.609Z,50.60
2017-08-21T06:10:27.089Z,50.80
2017-08-21T06:12:54.554Z,50.70
2017-08-21T06:15:22.020Z,50.60
2017-08-21T06:17:49.478Z,50.60
2017-08-21T06:20:16.941Z,50.60
2017-08-21T06:22:44.395Z,50.60
2017-08-21T06:25:11.853Z,50.60
2017-08-21T06:27:39.312Z,50.60
2017-08-21T06:30:06.774Z,50.50
2017-08-21T06:32:34.226Z,50.50
2017-08-21T06:35:01.742Z,50.60
2017-08-21T06:37:29.201Z,50.50
2017-08-21T06:39:56.662Z,50.50
2017-08-21T06:42:24.139Z,50.50
2017-08-21T06:44:51.600Z,50.50
2017-08-21T06:47:19.079Z,50.40
2017-08-21T06:49:46.746Z,50.30
2017-08-21T06:52:14.233Z,50.30
2017-08-21T06:54:41.673Z,50.20
2017-08-21T06:57:09.153Z,50.10
2017-08-21T06:59:36.593Z,50.00
2017-08-21T07:02:04.050Z,50.20
2017-08-21T07:04:31.501Z,50.00
2017-08-21T07:06:58.968Z,50.00
2017-08-21T07:09:26.442Z,50.00
2017-08-21T07:11:53.887Z,49.90
2017-08-21T07:14:21.346Z,49.80
2017-08-21T07:16:48.818Z,49.90
2017-08-21T07:19:16.269Z,50.00
2017-08-21T07:21:43.715Z,49.90
2017-08-21T07:24:11.196Z,49.80
2017-08-21T07:26:38.648Z,49.70
2017-08-21T07:29:06.153Z,49.60
2017-08-21T07:31:33.620Z,49.30
2017-08-21T07:34:01.109Z,49.30
2017-08-21T07:36:28.562Z,49.10
2017-08-21T07:38:56.015Z,49.00
2017-08-21T07:41:23.483Z,49.40
2017-08-21T07:43:50.971Z,48.60
2017-08-21T07:46:18.438Z,48.40
2017-08-21T07:48:45.919Z,48.40
2017-08-21T07:51:13.370Z,48.40
2017-08-21T07:53:40.828Z,48.30
2017-08-21T07:56:08.297Z,48.10
2017-08-21T07:58:35.775Z,47.80
2017-08-21T08:01:03.261Z,47.70
2017-08-21T08:03:30.718Z,47.50
2017-08-21T08:05:58.186Z,47.30
2017-08-21T08:08:25.653Z,47.30
2017-08-21T08:10:53.102Z,47.40
2017-08-21T08:13:20.574Z,47.40
2017-08-21T08:15:48.026Z,47.50
2017-08-21T08:18:15.476Z,47.40
2017-08-21T08:20:42.930Z,47.40
2017-08-21T08:23:10.413Z,47.50
2017-08-21T08:25:37.858Z,47.50
2017-08-21T08:28:05.320Z,47.50
2017-08-21T08:30:34.986Z,47.50
2017-08-21T08:33:02.438Z,47.50
2017-08-21T08:35:29.928Z,47.20
2017-08-21T08:37:57.398Z,47.10
2017-08-21T08:40:24.881Z,47.00
2017-08-21T08:42:52.354Z,46.90
2017-08-21T08:45:19.826Z,46.90
2017-08-21T08:47:47.275Z,47.00
2017-08-21T08:50:14.737Z,46.80
2017-08-21T08:52:42.186Z,46.30
2017-08-21T08:55:09.634Z,45.90
2017-08-21T08:57:37.118Z,45.50
2017-08-21T09:00:04.591Z,45.10
2017-08-21T09:02:32.092Z,44.90
2017-08-21T09:04:59.547Z,44.50
2017-08-21T09:07:27.038Z,44.10
2017-08-21T09:09:54.487Z,44.20
2017-08-21T09:12:21.939Z,44.30
2017-08-21T09:14:49.449Z,44.40
2017-08-21T09:17:19.154Z,44.00
2017-08-21T09:19:46.638Z,44.00
2017-08-21T09:22:14.117Z,44.20
2017-08-21T09:24:41.574Z,44.20
2017-08-21T09:27:09.042Z,43.90
2017-08-21T09:29:36.528Z,43.10
2017-08-21T09:32:03.985Z,42.80
2017-08-21T09:34:31.437Z,43.10
2017-08-21T09:36:58.893Z,43.40
2017-08-21T09:39:26.350Z,43.70
2017-08-21T09:41:53.799Z,43.90
2017-08-21T09:44:21.250Z,43.70
2017-08-21T09:46:48.710Z,43.80
2017-08-21T09:49:16.190Z,43.80
2017-08-21T09:51:43.663Z,43.60
2017-08-21T09:54:11.126Z,43.20
2017-08-21T09:56:38.610Z,43.20
2017-08-21T09:59:06.090Z,43.30
2017-08-21T10:01:33.578Z,43.50
2017-08-21T10:04:01.478Z,43.60
2017-08-21T10:06:28.930Z,43.40
2017-08-21T10:08:56.382Z,43.30
2017-08-21T10:11:23.846Z,42.90
2017-08-21T10:13:51.321Z,42.30
2017-08-21T10:16:18.799Z,41.80
2017-08-21T10:18:46.302Z,41.40
2017-08-21T10:21:13.742Z,40.80
2017-08-21T10:23:41.255Z,40.30
2017-08-21T10:26:08.698Z,40.30
2017-08-21T10:28:36.158Z,40.60
2017-08-21T10:31:03.605Z,40.90
2017-08-21T10:33:31.067Z,41.40
2017-08-21T10:35:58.558Z,41.50
2017-08-21T10:38:26.009Z,41.90
2017-08-21T10:40:53.454Z,42.20
2017-08-21T10:43:20.922Z,42.40
2017-08-21T10:45:48.407Z,42.60
2017-08-21T10:48:15.858Z,43.00
2017-08-21T10:50:43.330Z,43.10
2017-08-21T10:53:10.782Z,43.20
2017-08-21T10:55:38.256Z,43.40
2017-08-21T10:58:05.697Z,43.50
2017-08-21T11:00:33.153Z,43.50
2017-08-21T11:03:00.614Z,43.60
2017-08-21T11:05:28.061Z,43.40
2017-08-21T11:07:55.510Z,43.40
2017-08-21T11:10:22.995Z,43.30
2017-08-21T11:12:50.430Z,42.90
2017-08-21T11:15:17.890Z,42.70
2017-08-21T11:17:45.335Z,42.50
2017-08-21T11:20:12.799Z,42.60
2017-08-21T11:22:40.243Z,42.70
2017-08-21T11:25:07.722Z,42.90
2017-08-21T11:27:35.166Z,43.00
2017-08-21T11:30:02.653Z,43.20
2017-08-21T11:32:30.094Z,43.30
2017-08-21T11:34:57.558Z,43.30
2017-08-21T11:37:25.003Z,43.50
2017-08-21T11:39:52.485Z,43.50
2017-08-21T11:42:19.954Z,43.70
2017-08-21T11:44:47.410Z,43.90
2017-08-21T11:47:14.870Z,44.00
2017-08-21T11:49:42.332Z,44.10
2017-08-21T11:52:09.783Z,44.00
2017-08-21T11:54:37.226Z,43.90
2017-08-21T11:57:04.689Z,43.50
2017-08-21T11:59:32.138Z,43.10
2017-08-21T12:01:59.606Z,42.90
2017-08-21T12:04:27.054Z,42.50
2017-08-21T12:06:54.510Z,41.70
2017-08-21T12:09:21.956Z,40.50
2017-08-21T12:11:49.416Z,39.70
2017-08-21T12:14:16.862Z,39.80
2017-08-21T12:16:44.305Z,38.90
2017-08-21T12:19:11.795Z,38.20
2017-08-21T12:21:39.241Z,37.50
2017-08-21T12:24:06.710Z,37.40
2017-08-21T12:26:34.165Z,36.70
2017-08-21T12:29:01.651Z,36.20
2017-08-21T12:31:29.101Z,36.40
2017-08-21T12:33:56.558Z,36.90
2017-08-21T12:36:24.010Z,37.50
2017-08-21T12:38:51.490Z,38.20
2017-08-21T12:41:18.950Z,38.30
2017-08-21T12:43:46.407Z,38.60
2017-08-21T12:46:13.853Z,39.00
2017-08-21T12:48:41.344Z,39.40
2017-08-21T12:51:08.798Z,39.90
2017-08-21T12:53:36.250Z,40.00
2017-08-21T12:56:03.705Z,40.10
2017-08-21T12:58:31.150Z,39.80
2017-08-21T13:00:58.617Z,39.40
2017-08-21T13:03:26.074Z,39.60
2017-08-21T13:05:53.535Z,39.80
2017-08-21T13:08:20.994Z,40.00
2017-08-21T13:10:48.491Z,40.20
2017-08-21T13:13:15.938Z,40.40
2017-08-21T13:15:43.398Z,40.70
2017-08-21T13:18:10.847Z,41.00
2017-08-21T13:20:38.305Z,41.40
2017-08-21T13:23:05.763Z,41.50
2017-08-21T13:25:33.210Z,41.70
2017-08-21T13:28:00.678Z,41.40
2017-08-21T13:30:28.146Z,40.50
2017-08-21T13:32:55.623Z,40.30
2017-08-21T13:35:23.068Z,39.90
2017-08-21T13:37:50.554Z,40.10
2017-08-21T13:40:17.994Z,39.70
2017-08-21T13:42:45.463Z,39.00
2017-08-21T13:45:12.926Z,38.40
2017-08-21T13:47:40.396Z,37.80
2017-08-21T13:50:07.855Z,37.50
2017-08-21T13:52:35.311Z,37.60
2017-08-21T13:55:02.756Z,37.60
2017-08-21T13:57:30.221Z,37.40
2017-08-21T13:59:57.699Z,36.80
2017-08-21T14:02:25.146Z,36.90
2017-08-21T14:04:52.624Z,37.30
2017-08-21T14:07:20.081Z,37.20
2017-08-21T14:09:47.538Z,37.00
2017-08-21T14:12:15.026Z,36.90
2017-08-21T14:14:42.465Z,36.60
2017-08-21T14:17:09.934Z,36.40
2017-08-21T14:19:37.392Z,36.20
2017-08-21T14:22:04.842Z,36.00
2017-08-21T14:24:32.317Z,35.80
2017-08-21T14:26:59.793Z,35.60
2017-08-21T14:29:27.249Z,35.60
2017-08-21T14:31:54.699Z,35.60
2017-08-21T14:34:22.197Z,35.50
2017-08-21T14:36:49.642Z,35.40
2017-08-21T14:39:17.110Z,35.40
2017-08-21T14:41:44.567Z,35.40
2017-08-21T14:44:12.013Z,35.40
2017-08-21T14:46:39.505Z,35.30
2017-08-21T14:49:06.958Z,35.40
2017-08-21T14:51:34.426Z,35.30
2017-08-21T14:54:01.877Z,35.30
2017-08-21T14:56:29.363Z,35.40
2017-08-21T14:58:56.802Z,35.30
2017-08-21T15:01:24.304Z,35.70
2017-08-21T15:03:51.749Z,35.80
2017-08-21T15:06:19.238Z,35.90
2017-08-21T15:08:46.697Z,36.10
2017-08-21T15:11:14.174Z,36.10
2017-08-21T15:13:41.633Z,36.10
2017-08-21T15:16:09.088Z,36.30
2017-08-21T15:18:36.538Z,36.40
2017-08-21T15:21:03.985Z,36.50
2017-08-21T15:23:31.461Z,36.50
2017-08-21T15:25:58.902Z,37.50
2017-08-21T15:28:26.362Z,37.20
2017-08-21T15:30:53.807Z,37.40
2017-08-21T15:33:21.266Z,37.30
2017-08-21T15:35:48.767Z,37.60
2017-08-21T15:38:16.242Z,37.80
2017-08-21T15:40:43.720Z,38.20
2017-08-21T15:43:11.178Z,38.50
2017-08-21T15:45:38.634Z,38.70
2017-08-21T15:48:06.112Z,38.90
2017-08-21T15:50:33.569Z,38.80
2017-08-21T15:53:01.038Z,38.90
2017-08-21T15:55:28.530Z,39.10
2017-08-21T15:57:55.982Z,39.20
2017-08-21T16:00:23.437Z,39.30
2017-08-21T16:02:50.908Z,39.40
2017-08-21T16:05:18.365Z,39.60
2017-08-21T16:07:45.811Z,39.60
2017-08-21T16:10:13.294Z,39.70
2017-08-21T16:12:40.734Z,39.80
2017-08-21T16:15:08.186Z,39.80
2017-08-21T16:17:35.649Z,39.90
2017-08-21T16:20:03.122Z,40.20
2017-08-21T16:22:30.558Z,40.20
2017-08-21T16:24:58.013Z,40.20
2017-08-21T16:27:25.499Z,40.30
2017-08-21T16:29:52.971Z,40.40
2017-08-21T16:32:20.422Z,40.60
2017-08-21T16:34:47.881Z,40.60
2017-08-21T16:37:15.339Z,40.70
2017-08-21T16:39:42.878Z,40.80
2017-08-21T16:42:10.326Z,40.90
2017-08-21T16:44:37.792Z,41.00
2017-08-21T16:47:05.266Z,41.10
2017-08-21T16:49:32.717Z,41.10
2017-08-21T16:52:00.191Z,41.30
2017-08-21T16:54:27.671Z,41.30
2017-08-21T16:56:55.142Z,41.30
2017-08-21T16:59:22.599Z,41.40
2017-08-21T17:01:50.087Z,41.40
2017-08-21T17:04:17.543Z,41.50
2017-08-21T17:06:45.030Z,41.60
2017-08-21T17:09:12.494Z,41.60
2017-08-21T17:11:39.938Z,41.70
2017-08-21T17:14:07.409Z,41.70
2017-08-21T17:16:34.866Z,41.80
2017-08-21T17:19:02.327Z,41.90
2017-08-21T17:21:29.794Z,41.90
2017-08-21T17:23:57.266Z,42.00
2017-08-21T17:26:24.746Z,42.00
2017-08-21T17:28:52.206Z,42.20
2017-08-21T17:31:19.658Z,42.20
2017-08-21T17:33:47.107Z,42.20
2017-08-21T17:36:14.552Z,42.30
2017-08-21T17:38:42.029Z,42.40
2017-08-21T17:41:09.498Z,42.40
2017-08-21T17:43:36.938Z,42.50
2017-08-21T17:46:04.427Z,42.60
2017-08-21T17:48:31.877Z,42.60
2017-08-21T17:50:59.358Z,42.70
2017-08-21T17:53:26.845Z,42.80
2017-08-21T17:55:54.313Z,42.80
2017-08-21T17:58:21.777Z,42.90
2017-08-21T18:00:49.375Z,42.90
2017-08-21T18:03:16.820Z,43.00
2017-08-21T18:05:44.302Z,43.10
2017-08-21T18:08:11.757Z,43.20
2017-08-21T18:10:39.226Z,43.30
2017-08-21T18:13:06.674Z,43.40
2017-08-21T18:15:34.126Z,43.40
2017-08-21T18:18:01.618Z,43.50
2017-08-21T18:20:29.092Z,43.60
2017-08-21T18:22:56.535Z,43.60
2017-08-21T18:25:26.599Z,43.60
2017-08-21T18:27:54.216Z,43.80
2017-08-21T18:30:21.666Z,43.60
2017-08-21T18:32:55.679Z,43.90
2017-08-21T18:35:23.202Z,44.00
2017-08-21T18:37:52.668Z,44.00
2017-08-21T18:40:20.290Z,44.20
2017-08-21T18:42:48.654Z,44.20
2017-08-21T18:45:16.125Z,44.30
2017-08-21T18:47:43.578Z,44.30
2017-08-21T18:50:11.062Z,44.40
2017-08-21T18:52:43.551Z,44.40
2017-08-21T18:55:10.989Z,45.10
2017-08-21T18:57:39.823Z,44.60
2017-08-21T19:00:08.201Z,44.70
2017-08-21T19:02:36.303Z,44.70
2017-08-21T19:05:07.417Z,44.70
2017-08-21T19:07:37.588Z,44.70
2017-08-21T19:10:05.052Z,44.80
2017-08-21T19:12:32.503Z,44.90
2017-08-21T19:14:59.954Z,44.90
2017-08-21T19:17:27.418Z,44.90
2017-08-21T19:19:54.869Z,45.00
2017-08-21T19:22:22.514Z,45.00
2017-08-21T19:24:49.994Z,45.10
2017-08-21T19:27:17.478Z,45.10
2017-08-21T19:29:44.922Z,45.20
2017-08-21T19:32:12.493Z,45.10
2017-08-21T19:34:39.966Z,45.20
2017-08-21T19:37:07.467Z,45.20
2017-08-21T19:39:34.965Z,45.20
2017-08-21T19:42:02.421Z,45.30
2017-08-21T19:44:29.897Z,45.40
2017-08-21T19:46:57.363Z,45.40
2017-08-21T19:49:24.821Z,45.40
2017-08-21T19:51:52.281Z,45.40
2017-08-21T19:54:19.738Z,45.40
2017-08-21T19:56:47.186Z,45.50
2017-08-21T19:59:14.642Z,45.60
2017-08-21T20:01:42.106Z,45.70
2017-08-21T20:04:09.552Z,45.80
2017-08-21T20:06:37.017Z,45.70
2017-08-21T20:09:04.470Z,45.80
2017-08-21T20:11:31.965Z,45.80
2017-08-21T20:13:59.414Z,45.80
2017-08-21T20:16:26.864Z,45.90
2017-08-21T20:18:54.315Z,45.90
2017-08-21T20:21:21.777Z,46.00
2017-08-21T20:23:49.230Z,46.00
2017-08-21T20:26:16.713Z,46.00
2017-08-21T20:28:44.172Z,46.00
2017-08-21T20:31:11.626Z,46.10
2017-08-21T20:33:39.111Z,46.10
2017-08-21T20:36:06.554Z,46.10
2017-08-21T20:38:34.040Z,46.10
2017-08-21T20:41:01.499Z,46.10
2017-08-21T20:43:28.959Z,46.20
2017-08-21T20:45:56.423Z,46.20
2017-08-21T20:48:23.878Z,46.30
2017-08-21T20:50:51.330Z,46.90
2017-08-21T20:53:18.790Z,46.40
2017-08-21T20:55:46.245Z,46.30
2017-08-21T20:58:13.722Z,46.50
2017-08-21T21:00:41.182Z,46.40
2017-08-21T21:03:08.653Z,46.50
2017-08-21T21:05:36.138Z,46.50
2017-08-21T21:08:03.578Z,46.50
2017-08-21T21:10:31.055Z,46.50
2017-08-21T21:12:58.504Z,46.60
2017-08-21T21:15:25.958Z,46.60
2017-08-21T21:17:53.418Z,46.60
2017-08-21T21:20:20.923Z,46.60
2017-08-21T21:22:48.390Z,46.60
2017-08-21T21:25:15.914Z,46.70
2017-08-21T21:27:43.377Z,46.70
2017-08-21T21:30:10.827Z,46.70
2017-08-21T21:32:38.292Z,46.70
2017-08-21T21:35:05.741Z,46.80
2017-08-21T21:37:33.192Z,46.80
2017-08-21T21:40:00.713Z,46.90
2017-08-21T21:42:28.158Z,46.80
2017-08-21T21:44:55.604Z,46.80
2017-08-21T21:47:23.090Z,46.90
2017-08-21T21:49:50.533Z,46.90
2017-08-21T21:52:17.995Z,46.90
2017-08-21T21:54:45.462Z,46.90
2017-08-21T21:57:12.919Z,47.00
2017-08-21T21:59:40.410Z,47.00
2017-08-21T22:02:07.862Z,47.00
2017-08-21T22:04:35.326Z,47.00
2017-08-21T22:07:02.778Z,47.00
2017-08-21T22:09:30.277Z,47.10
2017-08-21T22:11:57.721Z,47.10
2017-08-21T22:14:25.173Z,47.00
2017-08-21T22:16:52.634Z,47.10
2017-08-21T22:19:20.129Z,47.10
2017-08-21T22:21:47.574Z,47.20
2017-08-21T22:24:15.029Z,47.20
2017-08-21T22:26:42.507Z,47.20
2017-08-21T22:29:09.944Z,47.10
2017-08-21T22:31:37.398Z,47.20
2017-08-21T22:34:04.868Z,47.20
2017-08-21T22:36:32.318Z,47.30
2017-08-21T22:38:59.769Z,47.30
2017-08-21T22:41:27.229Z,47.40
2017-08-21T22:43:54.683Z,47.40
2017-08-21T22:46:22.143Z,47.40
2017-08-21T22:48:49.599Z,47.40
2017-08-21T22:51:17.073Z,47.40
2017-08-21T22:53:44.526Z,47.40
2017-08-21T22:56:11.990Z,47.40
2017-08-21T22:58:39.445Z,47.40
2017-08-21T23:01:24.225Z,47.50
2017-08-21T23:03:51.686Z,47.50
2017-08-21T23:06:19.142Z,47.50
2017-08-21T23:08:46.612Z,47.60
2017-08-21T23:11:14.058Z,47.50
2017-08-21T23:13:41.526Z,47.50
2017-08-21T23:16:08.993Z,47.60
2017-08-21T23:18:36.438Z,47.70
2017-08-21T23:21:03.904Z,47.60
2017-08-21T23:23:31.360Z,47.70
2017-08-21T23:25:58.807Z,47.70
2017-08-21T23:28:26.332Z,47.70
2017-08-21T23:30:53.821Z,47.70
2017-08-21T23:33:21.274Z,47.80
2017-08-21T23:35:48.785Z,47.90
2017-08-21T23:38:16.225Z,47.90
2017-08-21T23:40:43.675Z,47.90
2017-08-21T23:43:11.122Z,47.80
2017-08-21T23:45:38.566Z,47.90
2017-08-21T23:48:06.017Z,47.90
2017-08-21T23:50:33.666Z,47.80
2017-08-21T23:53:01.132Z,47.90
2017-08-21T23:55:28.598Z,48.10
2017-08-21T23:57:56.078Z,48.10
